sensor_id;sensor_type;location;lat;lon;timestamp;P1;durP1;ratioP1;P2;durP2;ratioP2
16642;SDS011;8435;52.184;5.406;2024-01-11T00:02:02;11.80;;;8.27;;
16642;SDS011;8435;52.184;5.406;2024-01-11T00:04:31;12.23;;;9.10;;
16642;SDS011;8435;52.184;5.406;2024-01-11T00:06:58;12.10;;;8.93;;
16642;SDS011;8435;52.184;5.406;2024-01-11T00:09:25;13.90;;;9.67;;
16642;SDS011;8435;52.184;5.406;2024-01-11T00:11:52;11.73;;;8.60;;
16642;SDS011;8435;52.184;5.406;2024-01-11T00:14:19;13.03;;;9.13;;
16642;SDS011;8435;52.184;5.406;2024-01-11T00:16:45;14.60;;;10.20;;
16642;SDS011;8435;52.184;5.406;2024-01-11T00:19:13;14.87;;;9.50;;
16642;SDS011;8435;52.184;5.406;2024-01-11T00:21:40;15.30;;;9.70;;
16642;SDS011;8435;52.184;5.406;2024-01-11T00:24:07;12.13;;;8.67;;
16642;SDS011;8435;52.184;5.406;2024-01-11T00:26:34;16.80;;;10.10;;
16642;SDS011;8435;52.184;5.406;2024-01-11T00:29:03;13.00;;;9.20;;
16642;SDS011;8435;52.184;5.406;2024-01-11T00:31:29;15.17;;;9.83;;
16642;SDS011;8435;52.184;5.406;2024-01-11T00:33:58;17.17;;;10.33;;
16642;SDS011;8435;52.184;5.406;2024-01-11T00:36:27;14.00;;;9.57;;
16642;SDS011;8435;52.184;5.406;2024-01-11T00:38:54;15.03;;;10.03;;
16642;SDS011;8435;52.184;5.406;2024-01-11T00:41:21;14.43;;;9.87;;
16642;SDS011;8435;52.184;5.406;2024-01-11T00:43:48;14.60;;;9.77;;
16642;SDS011;8435;52.184;5.406;2024-01-11T00:46:14;16.40;;;10.00;;
16642;SDS011;8435;52.184;5.406;2024-01-11T00:48:41;16.80;;;9.83;;
16642;SDS011;8435;52.184;5.406;2024-01-11T00:51:08;17.43;;;10.20;;
16642;SDS011;8435;52.184;5.406;2024-01-11T00:53:36;14.50;;;10.37;;
16642;SDS011;8435;52.184;5.406;2024-01-11T00:56:03;14.77;;;10.00;;
16642;SDS011;8435;52.184;5.406;2024-01-11T00:58:30;16.33;;;10.50;;
16642;SDS011;8435;52.184;5.406;2024-01-11T01:00:57;14.60;;;9.63;;
16642;SDS011;8435;52.184;5.406;2024-01-11T01:03:24;14.40;;;9.70;;
16642;SDS011;8435;52.184;5.406;2024-01-11T01:05:50;14.43;;;8.93;;
16642;SDS011;8435;52.184;5.406;2024-01-11T01:08:17;13.57;;;9.27;;
16642;SDS011;8435;52.184;5.406;2024-01-11T01:10:45;15.13;;;10.13;;
16642;SDS011;8435;52.184;5.406;2024-01-11T01:13:12;13.90;;;9.60;;
16642;SDS011;8435;52.184;5.406;2024-01-11T01:15:41;12.97;;;8.80;;
16642;SDS011;8435;52.184;5.406;2024-01-11T01:18:11;15.17;;;9.40;;
16642;SDS011;8435;52.184;5.406;2024-01-11T01:20:38;13.47;;;8.90;;
16642;SDS011;8435;52.184;5.406;2024-01-11T01:23:06;16.27;;;10.20;;
16642;SDS011;8435;52.184;5.406;2024-01-11T01:25:33;14.10;;;9.80;;
16642;SDS011;8435;52.184;5.406;2024-01-11T01:28:04;14.50;;;9.87;;
16642;SDS011;8435;52.184;5.406;2024-01-11T01:30:31;13.97;;;9.53;;
16642;SDS011;8435;52.184;5.406;2024-01-11T01:32:57;15.83;;;9.90;;
16642;SDS011;8435;52.184;5.406;2024-01-11T01:35:24;14.00;;;9.80;;
16642;SDS011;8435;52.184;5.406;2024-01-11T01:37:51;14.53;;;9.73;;
16642;SDS011;8435;52.184;5.406;2024-01-11T01:40:18;15.77;;;9.93;;
16642;SDS011;8435;52.184;5.406;2024-01-11T01:42:45;14.87;;;9.67;;
16642;SDS011;8435;52.184;5.406;2024-01-11T01:45:14;14.67;;;10.37;;
16642;SDS011;8435;52.184;5.406;2024-01-11T01:47:42;17.80;;;10.30;;
16642;SDS011;8435;52.184;5.406;2024-01-11T01:50:10;13.90;;;9.70;;
16642;SDS011;8435;52.184;5.406;2024-01-11T01:52:38;15.27;;;10.10;;
16642;SDS011;8435;52.184;5.406;2024-01-11T01:55:08;16.47;;;9.93;;
16642;SDS011;8435;52.184;5.406;2024-01-11T01:57:36;16.90;;;10.20;;
16642;SDS011;8435;52.184;5.406;2024-01-11T02:00:06;14.70;;;10.57;;
16642;SDS011;8435;52.184;5.406;2024-01-11T02:02:36;19.03;;;10.70;;
16642;SDS011;8435;52.184;5.406;2024-01-11T02:05:05;16.30;;;10.80;;
16642;SDS011;8435;52.184;5.406;2024-01-11T02:07:33;16.40;;;11.70;;
16642;SDS011;8435;52.184;5.406;2024-01-11T02:10:00;16.97;;;11.93;;
16642;SDS011;8435;52.184;5.406;2024-01-11T02:12:28;20.17;;;12.13;;
16642;SDS011;8435;52.184;5.406;2024-01-11T02:14:57;16.67;;;11.33;;
16642;SDS011;8435;52.184;5.406;2024-01-11T02:17:24;17.40;;;12.13;;
16642;SDS011;8435;52.184;5.406;2024-01-11T02:19:52;20.10;;;13.30;;
16642;SDS011;8435;52.184;5.406;2024-01-11T02:22:20;19.40;;;12.27;;
16642;SDS011;8435;52.184;5.406;2024-01-11T02:24:52;20.07;;;12.07;;
16642;SDS011;8435;52.184;5.406;2024-01-11T02:27:22;17.53;;;12.50;;
16642;SDS011;8435;52.184;5.406;2024-01-11T02:29:49;18.50;;;12.17;;
16642;SDS011;8435;52.184;5.406;2024-01-11T02:32:16;18.73;;;12.27;;
16642;SDS011;8435;52.184;5.406;2024-01-11T02:34:43;19.63;;;13.10;;
16642;SDS011;8435;52.184;5.406;2024-01-11T02:37:10;17.77;;;12.30;;
16642;SDS011;8435;52.184;5.406;2024-01-11T02:39:37;19.60;;;13.93;;
16642;SDS011;8435;52.184;5.406;2024-01-11T02:42:06;17.27;;;12.57;;
16642;SDS011;8435;52.184;5.406;2024-01-11T02:44:33;19.90;;;14.23;;
16642;SDS011;8435;52.184;5.406;2024-01-11T02:47:01;19.77;;;14.37;;
16642;SDS011;8435;52.184;5.406;2024-01-11T02:49:34;21.23;;;13.60;;
16642;SDS011;8435;52.184;5.406;2024-01-11T02:52:01;20.47;;;13.97;;
16642;SDS011;8435;52.184;5.406;2024-01-11T02:54:28;20.83;;;14.33;;
16642;SDS011;8435;52.184;5.406;2024-01-11T02:56:58;23.40;;;13.50;;
16642;SDS011;8435;52.184;5.406;2024-01-11T02:59:26;20.63;;;13.47;;
16642;SDS011;8435;52.184;5.406;2024-01-11T03:01:53;19.03;;;13.37;;
16642;SDS011;8435;52.184;5.406;2024-01-11T03:04:20;19.80;;;13.53;;
16642;SDS011;8435;52.184;5.406;2024-01-11T03:06:48;20.27;;;14.37;;
16642;SDS011;8435;52.184;5.406;2024-01-11T03:09:15;22.07;;;15.67;;
16642;SDS011;8435;52.184;5.406;2024-01-11T03:11:41;22.67;;;15.40;;
16642;SDS011;8435;52.184;5.406;2024-01-11T03:14:08;19.57;;;13.23;;
16642;SDS011;8435;52.184;5.406;2024-01-11T03:16:36;21.53;;;14.33;;
16642;SDS011;8435;52.184;5.406;2024-01-11T03:19:04;20.67;;;14.47;;
16642;SDS011;8435;52.184;5.406;2024-01-11T03:21:34;23.13;;;15.13;;
16642;SDS011;8435;52.184;5.406;2024-01-11T03:24:01;22.33;;;15.33;;
16642;SDS011;8435;52.184;5.406;2024-01-11T03:26:30;21.03;;;14.73;;
16642;SDS011;8435;52.184;5.406;2024-01-11T03:28:56;21.73;;;14.90;;
16642;SDS011;8435;52.184;5.406;2024-01-11T03:31:23;21.63;;;14.93;;
16642;SDS011;8435;52.184;5.406;2024-01-11T03:33:51;23.70;;;15.07;;
16642;SDS011;8435;52.184;5.406;2024-01-11T03:36:22;23.20;;;15.20;;
16642;SDS011;8435;52.184;5.406;2024-01-11T03:38:49;22.93;;;15.43;;
16642;SDS011;8435;52.184;5.406;2024-01-11T03:41:16;19.27;;;13.37;;
16642;SDS011;8435;52.184;5.406;2024-01-11T03:43:44;21.03;;;14.53;;
16642;SDS011;8435;52.184;5.406;2024-01-11T03:46:11;22.53;;;15.40;;
16642;SDS011;8435;52.184;5.406;2024-01-11T03:48:37;23.30;;;15.60;;
16642;SDS011;8435;52.184;5.406;2024-01-11T03:51:07;22.90;;;14.13;;
16642;SDS011;8435;52.184;5.406;2024-01-11T03:53:34;20.27;;;13.97;;
16642;SDS011;8435;52.184;5.406;2024-01-11T03:56:02;21.70;;;15.20;;
16642;SDS011;8435;52.184;5.406;2024-01-11T03:58:29;23.57;;;15.27;;
16642;SDS011;8435;52.184;5.406;2024-01-11T04:00:56;22.40;;;15.87;;
16642;SDS011;8435;52.184;5.406;2024-01-11T04:03:23;21.93;;;15.33;;
16642;SDS011;8435;52.184;5.406;2024-01-11T04:05:49;22.20;;;14.77;;
16642;SDS011;8435;52.184;5.406;2024-01-11T04:08:16;22.43;;;15.83;;
16642;SDS011;8435;52.184;5.406;2024-01-11T04:10:44;23.20;;;15.37;;
16642;SDS011;8435;52.184;5.406;2024-01-11T04:13:13;23.70;;;16.57;;
16642;SDS011;8435;52.184;5.406;2024-01-11T04:15:40;24.30;;;16.33;;
16642;SDS011;8435;52.184;5.406;2024-01-11T04:18:10;27.13;;;16.90;;
16642;SDS011;8435;52.184;5.406;2024-01-11T04:20:37;25.77;;;16.30;;
16642;SDS011;8435;52.184;5.406;2024-01-11T04:23:04;22.77;;;15.83;;
16642;SDS011;8435;52.184;5.406;2024-01-11T04:25:32;26.60;;;18.13;;
16642;SDS011;8435;52.184;5.406;2024-01-11T04:27:58;24.63;;;16.37;;
16642;SDS011;8435;52.184;5.406;2024-01-11T04:30:25;27.10;;;18.07;;
16642;SDS011;8435;52.184;5.406;2024-01-11T04:32:52;29.07;;;18.27;;
16642;SDS011;8435;52.184;5.406;2024-01-11T04:35:19;25.30;;;17.83;;
16642;SDS011;8435;52.184;5.406;2024-01-11T04:37:45;28.27;;;18.27;;
16642;SDS011;8435;52.184;5.406;2024-01-11T04:40:12;27.30;;;18.30;;
16642;SDS011;8435;52.184;5.406;2024-01-11T04:42:43;25.77;;;18.17;;
16642;SDS011;8435;52.184;5.406;2024-01-11T04:45:09;29.20;;;18.87;;
16642;SDS011;8435;52.184;5.406;2024-01-11T04:47:36;28.23;;;18.63;;
16642;SDS011;8435;52.184;5.406;2024-01-11T04:50:03;29.97;;;19.83;;
16642;SDS011;8435;52.184;5.406;2024-01-11T04:52:31;26.73;;;17.73;;
16642;SDS011;8435;52.184;5.406;2024-01-11T04:54:57;28.10;;;19.80;;
16642;SDS011;8435;52.184;5.406;2024-01-11T04:57:27;27.93;;;18.87;;
16642;SDS011;8435;52.184;5.406;2024-01-11T04:59:55;29.77;;;20.10;;
16642;SDS011;8435;52.184;5.406;2024-01-11T05:02:22;29.27;;;19.70;;
16642;SDS011;8435;52.184;5.406;2024-01-11T05:04:51;26.70;;;18.00;;
16642;SDS011;8435;52.184;5.406;2024-01-11T05:07:18;28.50;;;17.77;;
16642;SDS011;8435;52.184;5.406;2024-01-11T05:09:45;25.43;;;17.97;;
16642;SDS011;8435;52.184;5.406;2024-01-11T05:12:12;27.93;;;18.97;;
16642;SDS011;8435;52.184;5.406;2024-01-11T05:14:39;26.97;;;18.57;;
16642;SDS011;8435;52.184;5.406;2024-01-11T05:17:07;29.10;;;18.97;;
16642;SDS011;8435;52.184;5.406;2024-01-11T05:19:33;26.37;;;17.70;;
16642;SDS011;8435;52.184;5.406;2024-01-11T05:22:00;27.40;;;18.47;;
16642;SDS011;8435;52.184;5.406;2024-01-11T05:24:26;27.57;;;19.17;;
16642;SDS011;8435;52.184;5.406;2024-01-11T05:26:53;25.87;;;18.53;;
16642;SDS011;8435;52.184;5.406;2024-01-11T05:29:20;28.43;;;19.57;;
16642;SDS011;8435;52.184;5.406;2024-01-11T05:31:46;30.37;;;19.83;;
16642;SDS011;8435;52.184;5.406;2024-01-11T05:34:15;30.20;;;19.30;;
16642;SDS011;8435;52.184;5.406;2024-01-11T05:36:41;27.03;;;17.83;;
16642;SDS011;8435;52.184;5.406;2024-01-11T05:39:08;30.90;;;18.93;;
16642;SDS011;8435;52.184;5.406;2024-01-11T05:41:37;28.17;;;19.50;;
16642;SDS011;8435;52.184;5.406;2024-01-11T05:44:04;27.23;;;19.40;;
16642;SDS011;8435;52.184;5.406;2024-01-11T05:46:31;28.77;;;19.00;;
16642;SDS011;8435;52.184;5.406;2024-01-11T05:48:58;29.03;;;19.57;;
16642;SDS011;8435;52.184;5.406;2024-01-11T05:51:29;30.30;;;19.17;;
16642;SDS011;8435;52.184;5.406;2024-01-11T05:53:56;26.07;;;17.80;;
16642;SDS011;8435;52.184;5.406;2024-01-11T05:56:23;30.23;;;19.87;;
16642;SDS011;8435;52.184;5.406;2024-01-11T05:58:50;27.17;;;18.47;;
16642;SDS011;8435;52.184;5.406;2024-01-11T06:01:16;26.43;;;19.53;;
16642;SDS011;8435;52.184;5.406;2024-01-11T06:03:43;31.33;;;20.83;;
16642;SDS011;8435;52.184;5.406;2024-01-11T06:06:13;28.00;;;19.60;;
16642;SDS011;8435;52.184;5.406;2024-01-11T06:08:41;28.97;;;20.17;;
16642;SDS011;8435;52.184;5.406;2024-01-11T06:11:08;30.93;;;20.53;;
16642;SDS011;8435;52.184;5.406;2024-01-11T06:13:35;28.87;;;19.63;;
16642;SDS011;8435;52.184;5.406;2024-01-11T06:16:11;29.53;;;20.20;;
16642;SDS011;8435;52.184;5.406;2024-01-11T06:18:37;28.27;;;19.00;;
16642;SDS011;8435;52.184;5.406;2024-01-11T06:21:04;26.20;;;18.57;;
16642;SDS011;8435;52.184;5.406;2024-01-11T06:23:31;25.60;;;18.77;;
16642;SDS011;8435;52.184;5.406;2024-01-11T06:25:59;27.80;;;19.37;;
16642;SDS011;8435;52.184;5.406;2024-01-11T06:28:26;28.60;;;19.60;;
16642;SDS011;8435;52.184;5.406;2024-01-11T06:30:53;28.50;;;19.93;;
16642;SDS011;8435;52.184;5.406;2024-01-11T06:33:19;28.37;;;19.50;;
16642;SDS011;8435;52.184;5.406;2024-01-11T06:35:46;33.30;;;19.67;;
16642;SDS011;8435;52.184;5.406;2024-01-11T06:38:13;27.70;;;18.57;;
16642;SDS011;8435;52.184;5.406;2024-01-11T06:40:40;28.27;;;18.87;;
16642;SDS011;8435;52.184;5.406;2024-01-11T06:43:08;30.40;;;20.00;;
16642;SDS011;8435;52.184;5.406;2024-01-11T06:45:34;29.60;;;19.53;;
16642;SDS011;8435;52.184;5.406;2024-01-11T06:48:01;29.47;;;20.13;;
16642;SDS011;8435;52.184;5.406;2024-01-11T06:50:34;28.70;;;19.00;;
16642;SDS011;8435;52.184;5.406;2024-01-11T06:53:01;29.53;;;19.60;;
16642;SDS011;8435;52.184;5.406;2024-01-11T06:55:30;27.77;;;18.97;;
16642;SDS011;8435;52.184;5.406;2024-01-11T06:57:57;26.47;;;18.97;;
16642;SDS011;8435;52.184;5.406;2024-01-11T07:00:25;28.33;;;19.57;;
16642;SDS011;8435;52.184;5.406;2024-01-11T07:02:52;31.10;;;18.67;;
16642;SDS011;8435;52.184;5.406;2024-01-11T07:05:19;28.87;;;18.93;;
16642;SDS011;8435;52.184;5.406;2024-01-11T07:07:46;31.60;;;20.03;;
16642;SDS011;8435;52.184;5.406;2024-01-11T07:10:13;28.17;;;19.73;;
16642;SDS011;8435;52.184;5.406;2024-01-11T07:12:40;32.70;;;20.70;;
16642;SDS011;8435;52.184;5.406;2024-01-11T07:15:08;32.93;;;22.10;;
16642;SDS011;8435;52.184;5.406;2024-01-11T07:17:37;32.93;;;21.70;;
16642;SDS011;8435;52.184;5.406;2024-01-11T07:20:04;31.83;;;20.27;;
16642;SDS011;8435;52.184;5.406;2024-01-11T07:22:32;28.33;;;19.20;;
16642;SDS011;8435;52.184;5.406;2024-01-11T07:24:59;29.23;;;19.33;;
16642;SDS011;8435;52.184;5.406;2024-01-11T07:27:26;37.03;;;20.07;;
16642;SDS011;8435;52.184;5.406;2024-01-11T07:29:53;28.83;;;19.27;;
16642;SDS011;8435;52.184;5.406;2024-01-11T07:32:20;26.77;;;19.43;;
16642;SDS011;8435;52.184;5.406;2024-01-11T07:34:48;30.10;;;20.30;;
16642;SDS011;8435;52.184;5.406;2024-01-11T07:37:15;28.73;;;20.43;;
16642;SDS011;8435;52.184;5.406;2024-01-11T07:39:41;30.97;;;20.00;;
16642;SDS011;8435;52.184;5.406;2024-01-11T07:42:08;30.33;;;19.73;;
16642;SDS011;8435;52.184;5.406;2024-01-11T07:44:35;29.87;;;20.27;;
16642;SDS011;8435;52.184;5.406;2024-01-11T07:47:02;28.43;;;19.87;;
16642;SDS011;8435;52.184;5.406;2024-01-11T07:49:29;34.20;;;20.23;;
16642;SDS011;8435;52.184;5.406;2024-01-11T07:51:57;31.13;;;20.60;;
16642;SDS011;8435;52.184;5.406;2024-01-11T07:54:24;31.57;;;21.20;;
16642;SDS011;8435;52.184;5.406;2024-01-11T07:56:51;31.97;;;21.43;;
16642;SDS011;8435;52.184;5.406;2024-01-11T07:59:18;33.47;;;21.80;;
16642;SDS011;8435;52.184;5.406;2024-01-11T08:01:44;32.23;;;21.60;;
16642;SDS011;8435;52.184;5.406;2024-01-11T08:04:13;32.90;;;21.00;;
16642;SDS011;8435;52.184;5.406;2024-01-11T08:06:40;30.03;;;20.07;;
16642;SDS011;8435;52.184;5.406;2024-01-11T08:09:08;31.10;;;21.40;;
16642;SDS011;8435;52.184;5.406;2024-01-11T08:11:35;36.00;;;21.73;;
16642;SDS011;8435;52.184;5.406;2024-01-11T08:14:02;30.03;;;20.40;;
16642;SDS011;8435;52.184;5.406;2024-01-11T08:16:30;29.30;;;20.40;;
16642;SDS011;8435;52.184;5.406;2024-01-11T08:18:57;30.77;;;21.07;;
16642;SDS011;8435;52.184;5.406;2024-01-11T08:21:23;35.83;;;21.53;;
16642;SDS011;8435;52.184;5.406;2024-01-11T08:23:50;31.37;;;20.37;;
16642;SDS011;8435;52.184;5.406;2024-01-11T08:26:18;36.10;;;21.90;;
16642;SDS011;8435;52.184;5.406;2024-01-11T08:28:48;30.43;;;20.10;;
16642;SDS011;8435;52.184;5.406;2024-01-11T08:31:18;32.40;;;21.20;;
16642;SDS011;8435;52.184;5.406;2024-01-11T08:33:47;33.37;;;21.27;;
16642;SDS011;8435;52.184;5.406;2024-01-11T08:36:16;35.37;;;22.27;;
16642;SDS011;8435;52.184;5.406;2024-01-11T08:38:43;33.33;;;22.40;;
16642;SDS011;8435;52.184;5.406;2024-01-11T08:41:10;31.90;;;22.07;;
16642;SDS011;8435;52.184;5.406;2024-01-11T08:43:38;30.80;;;20.33;;
16642;SDS011;8435;52.184;5.406;2024-01-11T08:46:05;29.80;;;21.20;;
16642;SDS011;8435;52.184;5.406;2024-01-11T08:48:32;30.53;;;21.50;;
16642;SDS011;8435;52.184;5.406;2024-01-11T08:50:58;31.07;;;22.03;;
16642;SDS011;8435;52.184;5.406;2024-01-11T08:53:25;34.83;;;22.60;;
16642;SDS011;8435;52.184;5.406;2024-01-11T08:55:52;33.87;;;21.70;;
16642;SDS011;8435;52.184;5.406;2024-01-11T08:58:19;34.13;;;22.17;;
16642;SDS011;8435;52.184;5.406;2024-01-11T09:00:47;34.13;;;23.07;;
16642;SDS011;8435;52.184;5.406;2024-01-11T09:03:17;37.43;;;22.83;;
16642;SDS011;8435;52.184;5.406;2024-01-11T09:05:44;33.97;;;23.20;;
16642;SDS011;8435;52.184;5.406;2024-01-11T09:08:10;31.73;;;21.17;;
16642;SDS011;8435;52.184;5.406;2024-01-11T09:10:37;31.40;;;21.20;;
16642;SDS011;8435;52.184;5.406;2024-01-11T09:13:06;31.30;;;21.20;;
16642;SDS011;8435;52.184;5.406;2024-01-11T09:15:33;33.70;;;21.27;;
16642;SDS011;8435;52.184;5.406;2024-01-11T09:18:01;27.37;;;19.07;;
16642;SDS011;8435;52.184;5.406;2024-01-11T09:20:28;33.10;;;19.77;;
16642;SDS011;8435;52.184;5.406;2024-01-11T09:22:55;29.93;;;19.57;;
16642;SDS011;8435;52.184;5.406;2024-01-11T09:25:22;29.97;;;19.57;;
16642;SDS011;8435;52.184;5.406;2024-01-11T09:27:56;28.80;;;18.73;;
16642;SDS011;8435;52.184;5.406;2024-01-11T09:30:23;28.97;;;19.43;;
16642;SDS011;8435;52.184;5.406;2024-01-11T09:32:50;27.10;;;18.70;;
16642;SDS011;8435;52.184;5.406;2024-01-11T09:35:23;28.77;;;18.03;;
16642;SDS011;8435;52.184;5.406;2024-01-11T09:37:50;28.43;;;18.23;;
16642;SDS011;8435;52.184;5.406;2024-01-11T09:40:17;28.07;;;18.27;;
16642;SDS011;8435;52.184;5.406;2024-01-11T09:42:45;31.20;;;18.10;;
16642;SDS011;8435;52.184;5.406;2024-01-11T09:45:12;27.63;;;17.67;;
16642;SDS011;8435;52.184;5.406;2024-01-11T09:47:44;29.80;;;17.87;;
16642;SDS011;8435;52.184;5.406;2024-01-11T09:50:11;29.53;;;17.77;;
16642;SDS011;8435;52.184;5.406;2024-01-11T09:52:44;28.40;;;16.47;;
16642;SDS011;8435;52.184;5.406;2024-01-11T09:55:13;31.00;;;17.40;;
16642;SDS011;8435;52.184;5.406;2024-01-11T09:57:41;28.37;;;17.40;;
16642;SDS011;8435;52.184;5.406;2024-01-11T10:00:11;26.77;;;16.87;;
16642;SDS011;8435;52.184;5.406;2024-01-11T10:02:43;28.03;;;16.37;;
16642;SDS011;8435;52.184;5.406;2024-01-11T10:05:10;27.20;;;16.23;;
16642;SDS011;8435;52.184;5.406;2024-01-11T10:07:39;32.07;;;17.70;;
16642;SDS011;8435;52.184;5.406;2024-01-11T10:10:09;29.57;;;17.03;;
16642;SDS011;8435;52.184;5.406;2024-01-11T10:12:39;31.23;;;18.23;;
16642;SDS011;8435;52.184;5.406;2024-01-11T10:15:06;27.47;;;16.43;;
16642;SDS011;8435;52.184;5.406;2024-01-11T10:17:34;25.43;;;16.43;;
16642;SDS011;8435;52.184;5.406;2024-01-11T10:20:01;31.80;;;17.53;;
16642;SDS011;8435;52.184;5.406;2024-01-11T10:22:29;30.17;;;16.57;;
16642;SDS011;8435;52.184;5.406;2024-01-11T10:25:10;26.20;;;15.73;;
16642;SDS011;8435;52.184;5.406;2024-01-11T10:27:38;29.13;;;16.70;;
16642;SDS011;8435;52.184;5.406;2024-01-11T10:30:07;29.17;;;16.20;;
16642;SDS011;8435;52.184;5.406;2024-01-11T10:32:34;27.07;;;15.73;;
16642;SDS011;8435;52.184;5.406;2024-01-11T10:35:01;28.23;;;16.47;;
16642;SDS011;8435;52.184;5.406;2024-01-11T10:37:30;26.43;;;15.77;;
16642;SDS011;8435;52.184;5.406;2024-01-11T10:39:58;29.67;;;17.17;;
16642;SDS011;8435;52.184;5.406;2024-01-11T10:42:30;27.17;;;16.40;;
16642;SDS011;8435;52.184;5.406;2024-01-11T10:44:59;26.90;;;15.70;;
16642;SDS011;8435;52.184;5.406;2024-01-11T10:47:31;24.73;;;15.20;;
16642;SDS011;8435;52.184;5.406;2024-01-11T10:49:58;26.37;;;15.00;;
16642;SDS011;8435;52.184;5.406;2024-01-11T10:52:32;27.57;;;16.37;;
16642;SDS011;8435;52.184;5.406;2024-01-11T10:55:05;25.27;;;15.33;;
16642;SDS011;8435;52.184;5.406;2024-01-11T10:57:34;25.17;;;15.47;;
16642;SDS011;8435;52.184;5.406;2024-01-11T11:00:01;27.20;;;16.10;;
16642;SDS011;8435;52.184;5.406;2024-01-11T11:02:32;25.57;;;15.70;;
16642;SDS011;8435;52.184;5.406;2024-01-11T11:05:01;26.40;;;14.73;;
16642;SDS011;8435;52.184;5.406;2024-01-11T11:07:30;26.30;;;15.37;;
16642;SDS011;8435;52.184;5.406;2024-01-11T11:09:58;26.47;;;15.93;;
16642;SDS011;8435;52.184;5.406;2024-01-11T11:12:25;24.07;;;15.13;;
16642;SDS011;8435;52.184;5.406;2024-01-11T11:14:54;24.90;;;14.87;;
16642;SDS011;8435;52.184;5.406;2024-01-11T11:17:22;23.00;;;14.53;;
16642;SDS011;8435;52.184;5.406;2024-01-11T11:19:49;23.37;;;14.87;;
16642;SDS011;8435;52.184;5.406;2024-01-11T11:22:17;24.80;;;15.43;;
16642;SDS011;8435;52.184;5.406;2024-01-11T11:24:44;26.33;;;15.70;;
16642;SDS011;8435;52.184;5.406;2024-01-11T11:27:12;24.10;;;15.60;;
16642;SDS011;8435;52.184;5.406;2024-01-11T11:29:39;23.00;;;15.63;;
16642;SDS011;8435;52.184;5.406;2024-01-11T11:32:08;23.23;;;14.97;;
16642;SDS011;8435;52.184;5.406;2024-01-11T11:34:40;22.57;;;14.43;;
16642;SDS011;8435;52.184;5.406;2024-01-11T11:37:07;22.90;;;14.63;;
16642;SDS011;8435;52.184;5.406;2024-01-11T11:39:35;21.70;;;14.33;;
16642;SDS011;8435;52.184;5.406;2024-01-11T11:42:03;26.23;;;14.40;;
16642;SDS011;8435;52.184;5.406;2024-01-11T11:44:30;22.03;;;14.30;;
16642;SDS011;8435;52.184;5.406;2024-01-11T11:47:09;20.03;;;13.40;;
16642;SDS011;8435;52.184;5.406;2024-01-11T11:49:57;22.80;;;14.00;;
16642;SDS011;8435;52.184;5.406;2024-01-11T11:52:32;21.97;;;13.80;;
16642;SDS011;8435;52.184;5.406;2024-01-11T11:55:00;20.27;;;13.93;;
16642;SDS011;8435;52.184;5.406;2024-01-11T11:57:27;21.03;;;13.77;;
16642;SDS011;8435;52.184;5.406;2024-01-11T11:59:54;24.17;;;14.23;;
16642;SDS011;8435;52.184;5.406;2024-01-11T12:02:26;22.60;;;14.03;;
16642;SDS011;8435;52.184;5.406;2024-01-11T12:04:53;21.77;;;14.50;;
16642;SDS011;8435;52.184;5.406;2024-01-11T12:07:20;22.20;;;14.40;;
16642;SDS011;8435;52.184;5.406;2024-01-11T12:09:48;22.10;;;13.77;;
16642;SDS011;8435;52.184;5.406;2024-01-11T12:12:15;21.13;;;13.50;;
16642;SDS011;8435;52.184;5.406;2024-01-11T12:14:45;20.63;;;13.93;;
16642;SDS011;8435;52.184;5.406;2024-01-11T12:17:12;21.57;;;14.37;;
16642;SDS011;8435;52.184;5.406;2024-01-11T12:19:40;19.70;;;13.73;;
16642;SDS011;8435;52.184;5.406;2024-01-11T12:22:07;20.23;;;14.33;;
16642;SDS011;8435;52.184;5.406;2024-01-11T12:24:34;22.50;;;14.50;;
16642;SDS011;8435;52.184;5.406;2024-01-11T12:27:01;18.80;;;13.50;;
16642;SDS011;8435;52.184;5.406;2024-01-11T12:29:28;19.90;;;14.20;;
16642;SDS011;8435;52.184;5.406;2024-01-11T12:31:56;20.70;;;13.67;;
16642;SDS011;8435;52.184;5.406;2024-01-11T12:34:24;23.93;;;15.07;;
16642;SDS011;8435;52.184;5.406;2024-01-11T12:36:55;19.97;;;13.83;;
16642;SDS011;8435;52.184;5.406;2024-01-11T12:39:25;20.40;;;14.17;;
16642;SDS011;8435;52.184;5.406;2024-01-11T12:41:55;21.60;;;13.67;;
16642;SDS011;8435;52.184;5.406;2024-01-11T12:44:23;18.53;;;13.53;;
16642;SDS011;8435;52.184;5.406;2024-01-11T12:46:50;23.77;;;15.80;;
16642;SDS011;8435;52.184;5.406;2024-01-11T12:49:20;20.80;;;14.00;;
16642;SDS011;8435;52.184;5.406;2024-01-11T12:51:49;20.70;;;13.43;;
16642;SDS011;8435;52.184;5.406;2024-01-11T12:54:20;18.20;;;13.20;;
16642;SDS011;8435;52.184;5.406;2024-01-11T12:56:47;18.07;;;12.90;;
16642;SDS011;8435;52.184;5.406;2024-01-11T12:59:15;19.80;;;13.20;;
16642;SDS011;8435;52.184;5.406;2024-01-11T13:01:42;19.27;;;12.63;;
16642;SDS011;8435;52.184;5.406;2024-01-11T13:04:10;17.50;;;13.03;;
16642;SDS011;8435;52.184;5.406;2024-01-11T13:06:37;18.87;;;12.93;;
16642;SDS011;8435;52.184;5.406;2024-01-11T13:09:04;20.10;;;13.90;;
16642;SDS011;8435;52.184;5.406;2024-01-11T13:11:34;20.87;;;13.93;;
16642;SDS011;8435;52.184;5.406;2024-01-11T13:14:01;21.43;;;14.50;;
16642;SDS011;8435;52.184;5.406;2024-01-11T13:16:31;18.90;;;12.33;;
16642;SDS011;8435;52.184;5.406;2024-01-11T13:18:58;17.07;;;12.37;;
16642;SDS011;8435;52.184;5.406;2024-01-11T13:21:25;16.43;;;11.67;;
16642;SDS011;8435;52.184;5.406;2024-01-11T13:23:55;16.50;;;12.17;;
16642;SDS011;8435;52.184;5.406;2024-01-11T13:26:22;17.97;;;13.03;;
16642;SDS011;8435;52.184;5.406;2024-01-11T13:28:50;15.40;;;11.97;;
16642;SDS011;8435;52.184;5.406;2024-01-11T13:31:17;16.33;;;11.60;;
16642;SDS011;8435;52.184;5.406;2024-01-11T13:33:45;18.53;;;11.97;;
16642;SDS011;8435;52.184;5.406;2024-01-11T13:36:12;17.43;;;12.93;;
16642;SDS011;8435;52.184;5.406;2024-01-11T13:38:38;16.33;;;11.57;;
16642;SDS011;8435;52.184;5.406;2024-01-11T13:41:06;23.17;;;11.93;;
16642;SDS011;8435;52.184;5.406;2024-01-11T13:43:33;20.97;;;12.57;;
16642;SDS011;8435;52.184;5.406;2024-01-11T13:46:01;15.73;;;11.53;;
16642;SDS011;8435;52.184;5.406;2024-01-11T13:48:29;15.47;;;12.00;;
16642;SDS011;8435;52.184;5.406;2024-01-11T13:50:58;15.67;;;11.90;;
16642;SDS011;8435;52.184;5.406;2024-01-11T13:53:27;14.97;;;11.50;;
16642;SDS011;8435;52.184;5.406;2024-01-11T13:55:54;15.73;;;11.90;;
16642;SDS011;8435;52.184;5.406;2024-01-11T13:58:21;16.07;;;9.67;;
16642;SDS011;8435;52.184;5.406;2024-01-11T14:00:48;14.33;;;10.90;;
16642;SDS011;8435;52.184;5.406;2024-01-11T14:03:16;13.40;;;11.07;;
16642;SDS011;8435;52.184;5.406;2024-01-11T14:05:43;14.33;;;11.20;;
16642;SDS011;8435;52.184;5.406;2024-01-11T14:08:10;15.43;;;11.53;;
16642;SDS011;8435;52.184;5.406;2024-01-11T14:10:36;16.63;;;12.00;;
16642;SDS011;8435;52.184;5.406;2024-01-11T14:13:03;15.73;;;10.93;;
16642;SDS011;8435;52.184;5.406;2024-01-11T14:15:37;15.00;;;10.53;;
16642;SDS011;8435;52.184;5.406;2024-01-11T14:18:07;13.60;;;10.17;;
16642;SDS011;8435;52.184;5.406;2024-01-11T14:20:36;16.07;;;11.33;;
16642;SDS011;8435;52.184;5.406;2024-01-11T14:23:03;15.40;;;10.53;;
16642;SDS011;8435;52.184;5.406;2024-01-11T14:25:30;13.90;;;10.20;;
16642;SDS011;8435;52.184;5.406;2024-01-11T14:27:56;13.20;;;10.23;;
16642;SDS011;8435;52.184;5.406;2024-01-11T14:30:24;13.40;;;9.73;;
16642;SDS011;8435;52.184;5.406;2024-01-11T14:32:51;14.63;;;10.10;;
16642;SDS011;8435;52.184;5.406;2024-01-11T14:35:23;15.90;;;11.07;;
16642;SDS011;8435;52.184;5.406;2024-01-11T14:37:51;15.10;;;10.47;;
16642;SDS011;8435;52.184;5.406;2024-01-11T14:40:18;14.33;;;9.87;;